createdAt,value
2018-11-06T00:00:20.936Z,28.27
2018-11-06T00:02:54.343Z,27.93
2018-11-06T00:05:23.704Z,22.67
2018-11-06T00:07:52.966Z,26.87
2018-11-06T00:10:22.481Z,31.37
2018-11-06T00:12:51.853Z,28.73
2018-11-06T00:15:21.458Z,25.17
2018-11-06T00:17:50.917Z,25.97
2018-11-06T00:20:20.270Z,32.30
2018-11-06T00:22:49.728Z,30.83
2018-11-06T00:25:19.149Z,30.60
2018-11-06T00:27:48.669Z,33.37
2018-11-06T00:30:17.890Z,35.03
2018-11-06T00:32:47.375Z,30.80
2018-11-06T00:35:16.799Z,34.90
2018-11-06T00:37:46.429Z,37.30
2018-11-06T00:40:16.037Z,38.67
2018-11-06T00:42:45.566Z,38.00
2018-11-06T00:45:15.914Z,35.77
2018-11-06T00:47:45.397Z,42.27
2018-11-06T00:50:15.213Z,34.43
2018-11-06T00:52:45.189Z,35.70
2018-11-06T00:55:14.777Z,33.83
2018-11-06T00:57:44.807Z,44.03
2018-11-06T01:00:17.805Z,36.00
2018-11-06T01:02:47.559Z,39.23
2018-11-06T01:05:17.947Z,37.10
2018-11-06T01:07:48.621Z,33.70
2018-11-06T01:10:18.095Z,38.50
2018-11-06T01:12:47.454Z,36.50
2018-11-06T01:15:17.367Z,37.83
2018-11-06T01:17:47.402Z,41.20
2018-11-06T01:20:18.161Z,44.20
2018-11-06T01:22:47.755Z,43.97
2018-11-06T01:25:17.207Z,38.93
2018-11-06T01:27:46.751Z,41.53
2018-11-06T01:30:18.291Z,42.23
2018-11-06T01:32:48.041Z,40.23
2018-11-06T01:35:17.948Z,44.70
2018-11-06T01:37:47.599Z,42.63
2018-11-06T01:40:18.376Z,52.83
2018-11-06T01:42:48.302Z,48.80
2018-11-06T01:45:18.258Z,47.40
2018-11-06T01:47:47.765Z,46.03
2018-11-06T01:50:18.104Z,55.67
2018-11-06T01:52:48.109Z,51.03
2018-11-06T01:55:17.663Z,47.30
2018-11-06T01:57:47.022Z,45.83
2018-11-06T02:00:18.910Z,46.83
2018-11-06T02:02:48.553Z,45.27
2018-11-06T02:05:18.683Z,45.17
2018-11-06T02:07:49.400Z,44.90
2018-11-06T02:10:19.161Z,47.37
2018-11-06T02:12:48.723Z,46.00
2018-11-06T02:15:18.125Z,45.70
2018-11-06T02:17:47.486Z,43.80
2018-11-06T02:20:17.130Z,46.93
2018-11-06T02:22:47.006Z,46.17
2018-11-06T02:25:16.460Z,46.50
2018-11-06T02:27:46.046Z,42.83
2018-11-06T02:30:16.717Z,41.50
2018-11-06T02:32:46.635Z,44.17
2018-11-06T02:35:16.117Z,43.23
2018-11-06T02:37:46.020Z,45.00
2018-11-06T02:40:16.159Z,46.30
2018-11-06T02:42:45.760Z,38.30
2018-11-06T02:45:15.211Z,44.33
2018-11-06T02:47:44.885Z,43.30
2018-11-06T02:50:15.707Z,45.40
2018-11-06T02:52:45.535Z,43.30
2018-11-06T02:55:15.196Z,47.37
2018-11-06T02:57:44.993Z,43.40
2018-11-06T03:00:15.784Z,44.50
2018-11-06T03:02:45.964Z,46.63
2018-11-06T03:05:15.360Z,37.83
2018-11-06T03:07:44.839Z,41.53
2018-11-06T03:10:14.978Z,40.60
2018-11-06T03:12:44.814Z,38.67
2018-11-06T03:15:14.939Z,45.27
2018-11-06T03:17:44.377Z,45.60
2018-11-06T03:20:14.556Z,39.57
2018-11-06T03:22:44.525Z,43.77
2018-11-06T03:25:13.909Z,43.27
2018-11-06T03:27:43.450Z,40.53
2018-11-06T03:30:15.281Z,39.23
2018-11-06T03:32:45.649Z,41.20
2018-11-06T03:35:15.872Z,41.27
2018-11-06T03:37:45.624Z,38.63
2018-11-06T03:40:15.081Z,41.77
2018-11-06T03:42:44.613Z,41.93
2018-11-06T03:45:14.330Z,40.03
2018-11-06T03:47:43.755Z,40.87
2018-11-06T03:50:13.837Z,42.03
2018-11-06T03:52:43.329Z,43.10
2018-11-06T03:55:12.698Z,41.00
2018-11-06T03:57:42.237Z,39.53
2018-11-06T04:00:14.689Z,42.57
2018-11-06T04:02:44.649Z,36.53
2018-11-06T04:05:14.330Z,39.30
2018-11-06T04:07:43.691Z,41.67
2018-11-06T04:10:13.574Z,43.23
2018-11-06T04:12:43.216Z,35.83
2018-11-06T04:15:13.820Z,37.53
2018-11-06T04:17:44.249Z,43.23
2018-11-06T04:20:13.810Z,40.33
2018-11-06T04:22:43.431Z,34.67
2018-11-06T04:25:12.844Z,42.97
2018-11-06T04:27:42.198Z,42.77
2018-11-06T04:30:14.006Z,41.57
2018-11-06T04:32:44.055Z,47.53
2018-11-06T04:35:13.891Z,49.50
2018-11-06T04:37:43.461Z,45.87
2018-11-06T04:40:13.828Z,42.43
2018-11-06T04:42:43.068Z,44.67
2018-11-06T04:45:12.948Z,53.17
2018-11-06T04:47:42.565Z,46.53
2018-11-06T04:50:12.302Z,46.13
2018-11-06T04:52:42.099Z,55.57
2018-11-06T04:55:12.672Z,54.63
2018-11-06T04:57:42.336Z,53.37
2018-11-06T05:00:13.327Z,60.60
2018-11-06T05:02:43.345Z,53.90
2018-11-06T05:05:13.352Z,54.50
2018-11-06T05:07:42.901Z,59.07
2018-11-06T05:10:14.413Z,63.23
2018-11-06T05:12:44.006Z,56.17
2018-11-06T05:15:14.694Z,67.73
2018-11-06T05:17:44.301Z,59.03
2018-11-06T05:20:17.227Z,54.97
2018-11-06T05:22:47.345Z,59.23
2018-11-06T05:25:17.001Z,56.63
2018-11-06T05:27:46.309Z,60.63
2018-11-06T05:30:15.644Z,56.17
2018-11-06T05:32:45.469Z,56.60
2018-11-06T05:35:14.844Z,57.70
2018-11-06T05:37:44.512Z,53.23
2018-11-06T05:41:22.449Z,49.60
2018-11-06T05:43:51.834Z,47.90
2018-11-06T05:46:21.340Z,42.23
2018-11-06T05:48:50.865Z,52.37
2018-11-06T05:51:20.375Z,53.77
2018-11-06T05:53:49.877Z,43.73
2018-11-06T05:56:19.357Z,49.17
2018-11-06T05:58:48.804Z,43.97
2018-11-06T06:01:18.096Z,44.17
2018-11-06T06:03:49.100Z,43.70
2018-11-06T06:06:18.435Z,43.50
2018-11-06T06:08:47.849Z,48.30
2018-11-06T06:11:17.346Z,47.07
2018-11-06T06:13:46.570Z,44.50
2018-11-06T06:16:15.953Z,48.57
2018-11-06T06:18:45.353Z,42.23
2018-11-06T06:21:14.761Z,50.53
2018-11-06T06:23:44.102Z,51.77
2018-11-06T06:26:13.460Z,47.23
2018-11-06T06:28:42.765Z,52.20
2018-11-06T06:31:12.360Z,49.70
2018-11-06T06:33:41.758Z,54.07
2018-11-06T06:36:11.274Z,51.87
2018-11-06T06:38:40.830Z,59.40
2018-11-06T06:41:10.192Z,57.17
2018-11-06T06:43:39.752Z,50.23
2018-11-06T06:46:09.216Z,54.70
2018-11-06T06:48:38.701Z,47.97
2018-11-06T06:51:08.260Z,49.50
2018-11-06T06:53:37.707Z,52.67
2018-11-06T06:56:07.379Z,45.60
2018-11-06T06:58:36.848Z,47.40
2018-11-06T07:01:06.448Z,45.67
2018-11-06T07:03:35.886Z,48.10
2018-11-06T07:06:05.447Z,44.57
2018-11-06T07:08:34.966Z,48.70
2018-11-06T07:11:04.326Z,44.27
2018-11-06T07:13:33.812Z,46.97
2018-11-06T07:16:03.173Z,47.30
2018-11-06T07:18:32.537Z,43.73
2018-11-06T07:21:01.768Z,41.53
2018-11-06T07:23:31.307Z,49.07
2018-11-06T07:26:00.417Z,39.93
2018-11-06T07:28:29.867Z,43.27
2018-11-06T07:30:59.565Z,41.97
2018-11-06T07:33:29.002Z,40.67
2018-11-06T07:35:58.541Z,39.03
2018-11-06T07:38:27.766Z,38.87
2018-11-06T07:40:57.095Z,38.53
2018-11-06T07:43:26.417Z,36.60
2018-11-06T07:45:55.711Z,36.07
2018-11-06T07:48:25.119Z,35.30
2018-11-06T07:50:54.579Z,36.73
2018-11-06T07:53:24.161Z,38.70
2018-11-06T07:55:53.904Z,35.30
2018-11-06T07:58:23.111Z,37.33
2018-11-06T08:00:52.499Z,33.50
2018-11-06T08:03:22.028Z,31.50
2018-11-06T08:05:51.450Z,30.20
2018-11-06T08:08:20.858Z,35.73
2018-11-06T08:10:50.258Z,33.00
2018-11-06T08:13:19.765Z,31.57
2018-11-06T08:15:49.322Z,27.97
2018-11-06T08:18:18.736Z,32.10
2018-11-06T08:20:48.110Z,34.03
2018-11-06T08:23:17.323Z,33.27
2018-11-06T08:25:46.737Z,35.30
2018-11-06T08:28:16.136Z,34.33
2018-11-06T08:30:45.662Z,31.70
2018-11-06T08:33:14.893Z,39.70
2018-11-06T08:35:44.395Z,36.77
2018-11-06T08:38:14.024Z,35.20
2018-11-06T08:40:43.497Z,36.43
2018-11-06T08:43:13.066Z,36.33
2018-11-06T08:45:42.514Z,32.23
2018-11-06T08:48:11.987Z,37.70
2018-11-06T08:50:41.433Z,33.57
2018-11-06T08:53:10.817Z,29.93
2018-11-06T08:55:40.494Z,32.27
2018-11-06T08:58:09.951Z,29.43
2018-11-06T09:00:39.494Z,28.93
2018-11-06T09:03:09.001Z,31.63
2018-11-06T09:05:38.447Z,24.33
2018-11-06T09:08:08.013Z,25.43
2018-11-06T09:10:37.415Z,27.10
2018-11-06T09:13:06.788Z,27.67
2018-11-06T09:15:36.224Z,33.73
2018-11-06T09:18:05.663Z,25.33
2018-11-06T09:20:35.078Z,22.53
2018-11-06T09:23:04.443Z,26.70
2018-11-06T09:25:34.393Z,22.30
2018-11-06T09:28:03.716Z,24.73
2018-11-06T09:30:33.015Z,19.90
2018-11-06T09:33:02.321Z,26.40
2018-11-06T09:35:31.861Z,25.10
2018-11-06T09:38:01.374Z,29.90
2018-11-06T09:42:59.966Z,24.47
2018-11-06T09:45:29.482Z,27.90
2018-11-06T09:47:59.204Z,32.37
2018-11-06T09:50:28.540Z,29.70
2018-11-06T09:52:57.840Z,26.67
2018-11-06T09:55:27.423Z,31.10
2018-11-06T09:57:56.949Z,30.27
2018-11-06T10:00:26.898Z,35.17
2018-11-06T10:02:56.426Z,25.37
2018-11-06T10:05:25.884Z,28.70
2018-11-06T10:07:55.336Z,29.07
2018-11-06T10:10:24.640Z,34.90
2018-11-06T10:12:54.167Z,27.53
2018-11-06T10:15:23.543Z,29.30
2018-11-06T10:17:52.916Z,32.17
2018-11-06T10:20:22.363Z,28.93
2018-11-06T10:22:51.793Z,27.33
2018-11-06T10:25:21.313Z,29.30
2018-11-06T10:27:50.736Z,28.13
2018-11-06T10:30:20.595Z,28.30
2018-11-06T10:32:50.000Z,28.13
2018-11-06T10:35:19.460Z,25.50
2018-11-06T10:37:48.853Z,26.93
2018-11-06T10:40:20.014Z,23.23
2018-11-06T10:42:49.491Z,29.87
2018-11-06T10:45:19.337Z,23.37
2018-11-06T10:47:49.179Z,23.10
2018-11-06T10:50:19.208Z,17.33
2018-11-06T10:52:49.115Z,21.60
2018-11-06T10:55:18.556Z,19.07
2018-11-06T10:57:48.130Z,21.40
2018-11-06T11:00:22.330Z,25.33
2018-11-06T11:02:56.730Z,19.00
2018-11-06T11:05:27.778Z,22.23
2018-11-06T11:07:57.219Z,21.70
2018-11-06T11:10:26.572Z,21.27
2018-11-06T11:12:56.187Z,22.17
2018-11-06T11:15:25.719Z,20.53
2018-11-06T11:17:55.104Z,22.67
2018-11-06T11:20:24.497Z,22.20
2018-11-06T11:22:54.071Z,19.90
2018-11-06T11:25:23.458Z,21.07
2018-11-06T11:27:52.851Z,24.50
2018-11-06T11:30:22.391Z,23.63
2018-11-06T11:32:51.958Z,21.63
2018-11-06T11:35:21.462Z,19.53
2018-11-06T11:37:50.935Z,20.40
2018-11-06T11:40:20.226Z,21.03
2018-11-06T11:42:49.530Z,23.37
2018-11-06T11:45:19.002Z,24.47
2018-11-06T11:47:48.408Z,21.33
2018-11-06T11:50:17.924Z,26.30
2018-11-06T11:52:47.461Z,22.90
2018-11-06T11:55:17.002Z,20.10
2018-11-06T11:57:46.452Z,24.83
2018-11-06T12:00:17.526Z,28.13
2018-11-06T12:02:47.028Z,21.97
2018-11-06T12:05:16.435Z,21.63
2018-11-06T12:07:45.908Z,22.30
2018-11-06T12:10:16.285Z,19.77
2018-11-06T12:12:47.598Z,19.43
2018-11-06T12:15:17.923Z,15.47
2018-11-06T12:17:47.810Z,17.73
2018-11-06T12:20:17.554Z,21.43
2018-11-06T12:22:47.137Z,19.53
2018-11-06T12:25:16.830Z,19.43
2018-11-06T12:27:46.162Z,20.23
2018-11-06T12:30:16.900Z,15.20
2018-11-06T12:32:46.344Z,17.53
2018-11-06T12:35:16.032Z,14.90
2018-11-06T12:37:45.513Z,13.53
2018-11-06T12:40:15.284Z,10.40
2018-11-06T12:42:44.840Z,16.33
2018-11-06T12:45:15.425Z,13.03
2018-11-06T12:47:45.251Z,11.83
2018-11-06T12:50:14.650Z,10.77
2018-11-06T12:52:44.103Z,9.40
2018-11-06T12:55:14.561Z,7.57
2018-11-06T12:57:44.040Z,9.47
2018-11-06T13:00:17.201Z,9.10
2018-11-06T13:02:46.651Z,8.70
2018-11-06T13:05:16.104Z,8.37
2018-11-06T13:07:45.905Z,5.93
2018-11-06T13:10:15.689Z,6.00
2018-11-06T13:12:45.349Z,7.83
2018-11-06T13:15:15.640Z,6.50
2018-11-06T13:17:44.206Z,7.17
2018-11-06T13:20:14.685Z,6.80
2018-11-06T13:22:44.726Z,5.77
2018-11-06T13:25:14.109Z,5.30
2018-11-06T13:27:43.675Z,4.47
2018-11-06T13:30:15.523Z,5.00
2018-11-06T13:32:45.870Z,4.87
2018-11-06T13:35:15.445Z,7.63
2018-11-06T13:37:44.768Z,4.33
2018-11-06T13:40:15.300Z,4.63
2018-11-06T13:42:44.920Z,6.47
2018-11-06T13:45:16.145Z,5.87
2018-11-06T13:47:45.396Z,5.67
2018-11-06T13:50:14.911Z,6.20
2018-11-06T13:52:44.415Z,5.03
2018-11-06T13:55:14.838Z,7.10
2018-11-06T13:57:45.015Z,5.63
2018-11-06T14:00:16.459Z,5.17
2018-11-06T14:02:45.885Z,6.63
2018-11-06T14:05:15.577Z,5.73
2018-11-06T14:07:45.239Z,6.77
2018-11-06T14:10:14.602Z,5.50
2018-11-06T14:12:44.852Z,6.17
2018-11-06T14:15:14.397Z,6.77
2018-11-06T14:17:43.869Z,4.77
2018-11-06T14:20:14.848Z,5.30
2018-11-06T14:22:44.480Z,7.00
2018-11-06T14:25:13.924Z,6.53
2018-11-06T14:27:43.561Z,5.80
2018-11-06T14:30:16.054Z,8.93
2018-11-06T14:32:45.842Z,5.73
2018-11-06T14:35:16.203Z,9.67
2018-11-06T14:37:46.269Z,6.20
2018-11-06T14:40:16.241Z,6.77
2018-11-06T14:42:45.967Z,7.23
2018-11-06T14:45:16.785Z,7.30
2018-11-06T14:47:46.216Z,6.60
2018-11-06T14:50:15.693Z,6.93
2018-11-06T14:52:44.959Z,6.47
2018-11-06T14:55:15.309Z,4.80
2018-11-06T14:57:44.815Z,9.47
2018-11-06T15:00:15.855Z,8.33
2018-11-06T15:02:46.655Z,6.30
2018-11-06T15:05:16.464Z,7.17
2018-11-06T15:07:46.180Z,10.63
2018-11-06T15:10:15.585Z,8.20
2018-11-06T15:12:45.410Z,10.93
2018-11-06T15:15:15.339Z,10.00
2018-11-06T15:17:45.752Z,9.07
2018-11-06T15:20:22.247Z,10.23
2018-11-06T15:22:51.813Z,6.67
2018-11-06T15:25:21.276Z,8.53
2018-11-06T15:27:50.538Z,9.57
2018-11-06T15:30:20.231Z,8.03
2018-11-06T15:32:49.634Z,8.13
2018-11-06T15:35:20.370Z,7.60
2018-11-06T15:37:49.825Z,10.67
2018-11-06T15:40:20.311Z,8.73
2018-11-06T15:42:49.610Z,11.17
2018-11-06T15:45:19.793Z,11.13
2018-11-06T15:47:49.371Z,10.03
2018-11-06T15:50:19.776Z,12.33
2018-11-06T15:52:50.109Z,11.47
2018-11-06T15:55:19.618Z,10.33
2018-11-06T15:57:49.095Z,8.77
2018-11-06T16:00:20.583Z,11.20
2018-11-06T16:02:50.066Z,13.60
2018-11-06T16:05:19.587Z,10.60
2018-11-06T16:07:49.425Z,14.60
2018-11-06T16:10:20.025Z,13.27
2018-11-06T16:12:49.607Z,9.23
2018-11-06T16:15:19.257Z,12.27
2018-11-06T16:17:48.914Z,9.73
2018-11-06T16:20:19.452Z,11.00
2018-11-06T16:22:48.904Z,14.53
2018-11-06T16:25:19.209Z,15.00
2018-11-06T16:27:48.893Z,11.43
2018-11-06T16:30:20.303Z,13.67
2018-11-06T16:32:50.661Z,14.93
2018-11-06T16:35:21.478Z,13.67
2018-11-06T16:37:50.905Z,12.57
2018-11-06T16:40:20.279Z,15.47
2018-11-06T16:42:49.733Z,20.20
2018-11-06T16:45:20.576Z,16.00
2018-11-06T16:47:50.485Z,15.97
2018-11-06T16:50:19.937Z,17.00
2018-11-06T16:52:50.332Z,17.70
2018-11-06T16:55:19.945Z,17.83
2018-11-06T16:57:49.526Z,14.23
2018-11-06T17:00:20.879Z,20.27
2018-11-06T17:02:50.057Z,18.97
2018-11-06T17:05:19.493Z,13.73
2018-11-06T17:07:49.231Z,15.57
2018-11-06T17:10:18.970Z,22.13
2018-11-06T17:12:48.148Z,16.23
2018-11-06T17:15:23.754Z,12.77
2018-11-06T17:17:53.888Z,15.27
2018-11-06T17:20:23.351Z,13.60
2018-11-06T17:22:52.416Z,13.40
2018-11-06T17:25:22.424Z,10.83
2018-11-06T17:27:51.851Z,17.83
2018-11-06T17:30:21.413Z,11.63
2018-11-06T17:32:50.796Z,16.07
2018-11-06T17:35:21.660Z,11.97
2018-11-06T17:37:50.801Z,12.57
2018-11-06T17:40:21.133Z,12.33
2018-11-06T17:42:50.670Z,11.70
2018-11-06T17:45:21.575Z,11.60
2018-11-06T17:47:50.980Z,11.73
2018-11-06T17:50:20.405Z,11.10
2018-11-06T17:52:49.448Z,11.73
2018-11-06T17:55:19.839Z,11.80
2018-11-06T17:57:48.985Z,10.87
2018-11-06T18:00:21.239Z,9.37
2018-11-06T18:02:50.636Z,12.17
2018-11-06T18:05:21.075Z,10.43
2018-11-06T18:07:50.130Z,13.57
2018-11-06T18:10:20.170Z,11.97
2018-11-06T18:12:49.254Z,10.37
2018-11-06T18:15:18.390Z,11.70
2018-11-06T18:17:47.651Z,14.30
2018-11-06T18:20:16.804Z,12.50
2018-11-06T18:22:46.279Z,14.53
2018-11-06T18:25:15.605Z,11.73
2018-11-06T18:27:45.112Z,12.57
2018-11-06T18:30:16.421Z,11.27
2018-11-06T18:32:45.557Z,14.13
2018-11-06T18:35:15.638Z,12.77
2018-11-06T18:37:45.204Z,12.17
2018-11-06T18:40:17.664Z,11.07
2018-11-06T18:42:47.774Z,11.07
2018-11-06T18:45:17.522Z,10.63
2018-11-06T18:47:46.872Z,12.57
2018-11-06T18:50:17.156Z,11.33
2018-11-06T18:52:47.838Z,10.63
2018-11-06T18:55:16.961Z,12.87
2018-11-06T18:57:46.126Z,11.50
2018-11-06T19:00:17.500Z,10.57
2018-11-06T19:02:47.804Z,9.50
2018-11-06T19:05:17.445Z,11.07
2018-11-06T19:07:46.834Z,14.87
2018-11-06T19:10:16.494Z,11.90
2018-11-06T19:12:45.965Z,16.00
2018-11-06T19:15:17.370Z,10.60
2018-11-06T19:17:47.012Z,13.87
2018-11-06T19:20:16.422Z,11.13
2018-11-06T19:22:46.105Z,11.47
2018-11-06T19:25:15.819Z,11.40
2018-11-06T19:27:45.399Z,10.60
2018-11-06T19:30:16.575Z,11.33
2018-11-06T19:32:46.146Z,10.93
2018-11-06T19:35:15.125Z,10.97
2018-11-06T19:37:44.372Z,10.63
2018-11-06T19:40:15.092Z,9.10
2018-11-06T19:42:45.299Z,9.63
2018-11-06T19:45:14.876Z,10.60
2018-11-06T19:47:44.532Z,7.60
2018-11-06T19:50:15.103Z,10.27
2018-11-06T19:52:44.514Z,11.27
2018-11-06T19:55:14.944Z,9.33
2018-11-06T19:57:44.438Z,12.23
2018-11-06T20:00:21.235Z,16.27
2018-11-06T20:02:51.223Z,9.07
2018-11-06T20:05:20.992Z,9.40
2018-11-06T20:07:51.137Z,12.40
2018-11-06T20:10:21.642Z,10.20
2018-11-06T20:12:52.139Z,7.47
2018-11-06T20:15:21.156Z,10.03
2018-11-06T20:17:50.624Z,9.90
2018-11-06T20:20:23.311Z,10.83
2018-11-06T20:22:52.608Z,10.30
2018-11-06T20:25:21.980Z,8.97
2018-11-06T20:27:52.131Z,10.73
2018-11-06T20:30:23.877Z,13.07
2018-11-06T20:32:53.232Z,11.97
2018-11-06T20:35:22.790Z,9.47
2018-11-06T20:37:52.228Z,10.57
2018-11-06T20:40:22.900Z,10.17
2018-11-06T20:42:52.379Z,11.43
2018-11-06T20:45:22.190Z,13.50
2018-11-06T20:47:51.487Z,9.50
2018-11-06T20:50:22.307Z,9.30
2018-11-06T20:52:51.783Z,8.47
2018-11-06T20:55:21.426Z,10.57
2018-11-06T20:57:50.809Z,13.63
2018-11-06T21:00:29.131Z,10.00
2018-11-06T21:03:00.740Z,12.30
2018-11-06T21:05:30.161Z,9.17
2018-11-06T21:07:59.493Z,9.53
2018-11-06T21:10:30.528Z,10.90
2018-11-06T21:13:00.102Z,11.63
2018-11-06T21:15:29.343Z,9.93
2018-11-06T21:17:59.002Z,14.87
2018-11-06T21:20:28.355Z,10.70
2018-11-06T21:22:57.661Z,12.37
2018-11-06T21:25:27.824Z,11.90
2018-11-06T21:27:57.264Z,8.20
2018-11-06T21:30:26.713Z,9.57
2018-11-06T21:32:56.159Z,6.87
2018-11-06T21:35:25.400Z,8.40
2018-11-06T21:37:54.814Z,7.60
2018-11-06T21:40:24.208Z,8.33
2018-11-06T21:42:53.684Z,12.37
2018-11-06T21:45:22.973Z,8.40
2018-11-06T21:47:52.229Z,9.13
2018-11-06T21:50:21.554Z,6.90
2018-11-06T21:52:50.822Z,9.20
2018-11-06T21:55:20.516Z,9.17
2018-11-06T21:57:50.023Z,8.20
2018-11-06T22:00:20.594Z,8.83
2018-11-06T22:02:49.978Z,8.67
2018-11-06T22:05:20.467Z,11.93
2018-11-06T22:07:49.926Z,9.97
2018-11-06T22:10:20.399Z,10.60
2018-11-06T22:12:50.158Z,9.27
2018-11-06T22:15:20.163Z,7.50
2018-11-06T22:17:49.664Z,7.73
2018-11-06T22:20:19.988Z,9.27
2018-11-06T22:22:49.698Z,7.27
2018-11-06T22:25:19.238Z,10.63
2018-11-06T22:27:48.492Z,6.47
2018-11-06T22:30:18.397Z,8.37
2018-11-06T22:32:48.056Z,9.50
2018-11-06T22:35:18.438Z,9.60
2018-11-06T22:37:47.829Z,10.47
2018-11-06T22:40:17.923Z,7.47
2018-11-06T22:42:47.326Z,8.50
2018-11-06T22:45:17.573Z,5.10
2018-11-06T22:47:48.046Z,6.50
2018-11-06T22:50:18.889Z,9.27
2018-11-06T22:52:49.031Z,7.23
2018-11-06T22:55:18.452Z,8.60
2018-11-06T22:57:47.791Z,6.03
2018-11-06T23:00:19.552Z,9.33
2018-11-06T23:02:49.106Z,8.37
2018-11-06T23:05:18.345Z,6.13
2018-11-06T23:07:53.073Z,6.60
2018-11-06T23:10:22.496Z,7.33
2018-11-06T23:12:51.873Z,10.77
2018-11-06T23:15:21.308Z,8.60
2018-11-06T23:17:50.795Z,6.97
2018-11-06T23:20:20.466Z,6.87
2018-11-06T23:22:49.791Z,7.93
2018-11-06T23:25:19.226Z,8.53
2018-11-06T23:27:48.712Z,6.60
2018-11-06T23:30:18.104Z,6.30
2018-11-06T23:32:47.651Z,7.47
2018-11-06T23:35:17.161Z,6.87
2018-11-06T23:37:46.535Z,6.40
2018-11-06T23:40:16.144Z,9.73
2018-11-06T23:42:45.538Z,5.43
2018-11-06T23:45:14.879Z,9.37
2018-11-06T23:47:44.297Z,5.83
2018-11-06T23:50:13.656Z,7.13
2018-11-06T23:52:42.954Z,9.33
2018-11-06T23:55:12.476Z,7.80
2018-11-06T23:57:41.944Z,8.83
